Time;durP1;ratioP1;P1;durP2;ratioP2;P2;SDS_P1;SDS_P2;PMS_P1;PMS_P2;Temp;Humidity;BMP_temperature;BMP_pressure;BME280_temperature;BME280_humidity;BME280_pressure;Samples;Min_cycle;Max_cycle;Signal;HPM_P1;HPM_P2
2022/11/07 00:02:03;;;;;;;10.80;7.45;;;11.20;99.90;;;;;;5035119;28;20037;-68
2022/11/07 00:04:30;;;;;;;8.77;7.20;;;11.00;99.90;;;;;;5047799;28;20143;-68
2022/11/07 00:06:56;;;;;;;9.70;6.75;;;;;;;;;;5048408;28;20491;-68
2022/11/07 00:09:22;;;;;;;12.75;7.15;;;11.00;99.90;;;;;;5035355;28;20052;-67
2022/11/07 00:11:47;;;;;;;9.60;6.70;;;11.20;99.90;;;;;;5035040;28;20045;-67
2022/11/07 00:14:14;;;;;;;12.80;6.95;;;11.20;99.90;;;;;;5033188;28;20175;-68
2022/11/07 00:16:40;;;;;;;15.73;7.18;;;11.20;99.90;;;;;;5049179;28;20036;-67
2022/11/07 00:19:06;;;;;;;12.73;6.50;;;11.20;99.90;;;;;;5034815;28;20576;-67
2022/11/07 00:21:32;;;;;;;12.85;7.07;;;;;;;;;;5048636;28;20076;-67
2022/11/07 00:23:58;;;;;;;10.50;6.10;;;;;;;;;;5033291;28;20045;-68
2022/11/07 00:26:24;;;;;;;12.00;6.13;;;;;;;;;;5036825;28;20097;-67
2022/11/07 00:28:49;;;;;;;11.10;5.93;;;11.10;99.90;;;;;;5035767;28;20480;-67
2022/11/07 00:31:16;;;;;;;11.52;6.95;;;11.20;99.90;;;;;;5034721;28;20260;-67
2022/11/07 00:33:42;;;;;;;11.18;5.70;;;11.00;99.90;;;;;;5034366;28;20037;-67
2022/11/07 00:36:08;;;;;;;9.50;5.45;;;;;;;;;;5034234;28;20053;-68
2022/11/07 00:38:34;;;;;;;6.95;5.90;;;;;;;;;;5035434;28;20511;-68
2022/11/07 00:41:04;;;;;;;12.63;5.55;;;11.50;99.90;;;;;;5040805;28;20441;-67
2022/11/07 00:43:30;;;;;;;10.52;5.90;;;11.40;99.90;;;;;;5033000;28;20048;-68
2022/11/07 00:45:56;;;;;;;9.80;6.57;;;11.30;99.90;;;;;;5033903;28;20116;-68
2022/11/07 00:48:22;;;;;;;7.47;5.35;;;11.10;99.90;;;;;;5034372;28;20030;-67
2022/11/07 00:50:49;;;;;;;16.48;5.93;;;11.30;99.90;;;;;;5034085;28;20044;-68
2022/11/07 00:53:15;;;;;;;7.97;5.03;;;11.40;99.90;;;;;;5047981;28;20050;-68
2022/11/07 00:55:40;;;;;;;16.40;5.80;;;11.30;99.90;;;;;;5032794;28;20041;-67
2022/11/07 00:58:06;;;;;;;12.48;5.75;;;11.40;99.90;;;;;;5034220;28;20112;-67
2022/11/07 01:00:31;;;;;;;16.70;5.78;;;11.40;99.90;;;;;;5034096;28;20488;-68
2022/11/07 01:05:42;;;;;;;11.00;5.45;;;11.40;99.90;;;;;;5032388;28;20092;-67
2022/11/07 01:08:07;;;;;;;9.95;5.28;;;11.40;99.90;;;;;;5038227;28;20072;-67
2022/11/07 01:10:33;;;;;;;12.52;6.20;;;;;;;;;;5052403;28;20043;-68
2022/11/07 01:12:59;;;;;;;16.85;6.20;;;11.50;99.90;;;;;;5038089;28;20119;-68
2022/11/07 01:15:24;;;;;;;11.77;5.78;;;11.40;99.90;;;;;;5032456;28;20052;-68
2022/11/07 01:17:50;;;;;;;10.88;5.68;;;;;;;;;;5033612;28;20043;-68
2022/11/07 01:20:16;;;;;;;12.85;5.78;;;11.40;99.90;;;;;;5037778;28;20051;-68
2022/11/07 01:22:42;;;;;;;11.15;5.18;;;11.30;99.90;;;;;;5043200;28;20492;-68
2022/11/07 01:25:07;;;;;;;11.43;5.85;;;11.40;99.90;;;;;;5032927;28;20045;-68
2022/11/07 01:27:33;;;;;;;12.32;5.45;;;11.50;99.90;;;;;;5033312;28;20472;-68
2022/11/07 01:29:58;;;;;;;12.02;5.13;;;11.40;99.90;;;;;;5032835;28;20033;-68
2022/11/07 01:32:24;;;;;;;9.70;4.93;;;11.50;99.90;;;;;;5052138;28;20079;-68
2022/11/07 01:34:50;;;;;;;10.95;4.70;;;;;;;;;;5053395;28;20123;-68
2022/11/07 01:37:16;;;;;;;15.88;5.43;;;;;;;;;;5034933;28;20072;-68
2022/11/07 01:39:41;;;;;;;12.38;4.75;;;11.70;99.90;;;;;;5015599;28;20119;-68
2022/11/07 01:42:10;;;;;;;12.13;4.88;;;11.50;99.90;;;;;;5031908;28;20049;-68
2022/11/07 01:44:39;;;;;;;7.07;4.35;;;11.60;99.90;;;;;;5031835;28;20077;-68
2022/11/07 01:47:05;;;;;;;16.48;5.82;;;11.60;99.90;;;;;;5043094;28;20041;-68
2022/11/07 01:49:35;;;;;;;11.95;6.18;;;11.60;99.90;;;;;;5034580;28;20033;-68
2022/11/07 01:52:18;;;;;;;11.75;5.47;;;;;;;;;;5041984;28;20103;-68
2022/11/07 01:55:07;;;;;;;14.57;5.28;;;11.60;99.90;;;;;;5047734;28;20095;-68
2022/11/07 01:57:43;;;;;;;10.50;5.00;;;11.40;99.90;;;;;;5031707;28;20055;-68
2022/11/07 02:00:12;;;;;;;15.68;5.00;;;11.50;99.90;;;;;;5048475;28;20055;-68
2022/11/07 02:02:39;;;;;;;7.90;4.32;;;11.40;99.90;;;;;;5046236;28;20040;-68
2022/11/07 02:05:07;;;;;;;9.98;4.47;;;11.60;99.90;;;;;;5031916;28;20468;-68
2022/11/07 02:07:32;;;;;;;14.52;5.38;;;11.50;99.90;;;;;;5033023;28;20045;-68
2022/11/07 02:09:58;;;;;;;10.40;4.60;;;11.50;99.90;;;;;;5048788;28;20037;-68
2022/11/07 02:12:25;;;;;;;13.75;5.15;;;11.50;99.90;;;;;;5031596;28;20045;-68
2022/11/07 02:14:51;;;;;;;10.75;4.50;;;11.60;99.90;;;;;;5034437;28;20049;-68
2022/11/07 02:17:17;;;;;;;14.43;4.43;;;11.40;99.90;;;;;;5043681;28;20098;-68
2022/11/07 02:19:46;;;;;;;10.52;4.82;;;11.60;99.90;;;;;;5033072;28;20048;-68
2022/11/07 02:22:20;;;;;;;9.50;4.90;;;11.60;99.90;;;;;;5033021;28;20179;-68
2022/11/07 02:24:50;;;;;;;9.55;4.32;;;11.60;99.90;;;;;;5032707;28;20046;-67
2022/11/07 02:27:19;;;;;;;9.80;4.40;;;11.70;99.90;;;;;;5031481;28;20034;-68
2022/11/07 02:29:50;;;;;;;14.43;4.57;;;11.60;99.90;;;;;;5031473;28;20048;-67
2022/11/07 02:32:16;;;;;;;9.00;4.43;;;11.70;99.90;;;;;;5036592;28;20122;-68
2022/11/07 02:34:42;;;;;;;10.70;4.20;;;;;;;;;;5041439;28;20073;-68
2022/11/07 02:37:24;;;;;;;16.00;5.63;;;11.50;99.90;;;;;;5033900;28;20458;-67
2022/11/07 02:39:50;;;;;;;8.38;4.80;;;11.50;99.90;;;;;;5035474;28;20052;-68
2022/11/07 02:42:16;;;;;;;9.30;4.20;;;11.30;99.90;;;;;;5036723;28;20037;-68
2022/11/07 02:44:41;;;;;;;19.38;5.65;;;11.50;99.90;;;;;;5036482;28;20073;-68
2022/11/07 02:47:07;;;;;;;10.18;4.68;;;;;;;;;;5046717;28;20120;-68
2022/11/07 02:49:33;;;;;;;14.15;4.38;;;11.50;99.90;;;;;;5038817;28;20040;-68
2022/11/07 02:51:58;;;;;;;14.20;5.30;;;11.60;99.90;;;;;;5044614;28;20045;-68
2022/11/07 02:54:24;;;;;;;12.27;3.67;;;11.60;99.90;;;;;;5040694;28;20144;-68
2022/11/07 02:56:49;;;;;;;17.08;3.92;;;11.90;99.90;;;;;;5042772;28;20059;-67
2022/11/07 02:59:15;;;;;;;14.07;4.55;;;11.50;99.90;;;;;;5056416;28;20040;-67
2022/11/07 03:01:41;;;;;;;9.73;3.42;;;;;;;;;;5035548;28;20567;-68
2022/11/07 03:04:07;;;;;;;12.02;3.88;;;11.50;99.90;;;;;;5035871;28;20432;-68
2022/11/07 03:06:33;;;;;;;9.48;4.18;;;;;;;;;;5047009;28;20084;-68
2022/11/07 03:08:58;;;;;;;11.80;4.03;;;11.50;99.90;;;;;;5035918;28;20442;-68
2022/11/07 03:11:24;;;;;;;10.15;3.15;;;;;;;;;;5034799;28;20045;-68
2022/11/07 03:13:50;;;;;;;9.63;3.58;;;;;;;;;;5036058;28;20045;-67
2022/11/07 03:16:17;;;;;;;12.63;3.70;;;11.30;99.90;;;;;;5034742;28;20487;-67
2022/11/07 03:18:44;;;;;;;13.32;3.58;;;;;;;;;;5034605;28;20048;-68
2022/11/07 03:21:09;;;;;;;10.38;3.20;;;11.30;99.90;;;;;;5034571;28;20050;-67
2022/11/07 03:23:36;;;;;;;12.45;3.83;;;;;;;;;;5035506;28;20510;-68
2022/11/07 03:26:03;;;;;;;12.10;3.78;;;11.50;99.90;;;;;;5035957;28;20029;-68
2022/11/07 03:28:29;;;;;;;14.57;4.93;;;11.30;99.90;;;;;;5036001;28;20041;-68
2022/11/07 03:30:58;;;;;;;11.18;3.65;;;11.20;99.90;;;;;;5034860;28;20577;-67
2022/11/07 03:33:24;;;;;;;13.13;4.82;;;;;;;;;;5034708;28;20053;-68
2022/11/07 03:35:49;;;;;;;10.52;3.65;;;11.30;99.90;;;;;;5034365;28;20129;-68
2022/11/07 03:38:15;;;;;;;12.48;4.00;;;;;;;;;;5017863;28;20458;-68
2022/11/07 03:40:41;;;;;;;10.18;3.83;;;11.20;99.90;;;;;;5034350;28;20049;-68
2022/11/07 03:43:07;;;;;;;9.82;4.00;;;;;;;;;;5035502;28;20515;-68
2022/11/07 03:45:32;;;;;;;11.80;4.10;;;11.20;99.90;;;;;;5035383;28;20037;-68
2022/11/07 03:47:58;;;;;;;12.00;4.53;;;11.30;99.90;;;;;;5035056;28;20524;-68
2022/11/07 03:50:24;;;;;;;12.63;4.07;;;11.20;99.90;;;;;;5033535;28;20041;-69
2022/11/07 03:52:49;;;;;;;10.50;3.55;;;11.20;99.90;;;;;;5041919;28;20041;-67
2022/11/07 03:55:16;;;;;;;7.43;3.33;;;;;;;;;;5043245;28;20048;-68
2022/11/07 03:57:43;;;;;;;14.05;4.07;;;11.50;99.90;;;;;;5033969;28;20049;-68
2022/11/07 04:00:10;;;;;;;9.48;3.55;;;11.30;99.90;;;;;;5035392;28;20041;-69
2022/11/07 04:02:36;;;;;;;12.80;3.95;;;11.30;99.90;;;;;;5034059;28;20103;-68
2022/11/07 04:05:01;;;;;;;8.40;3.55;;;11.40;99.90;;;;;;5033561;28;20087;-67
2022/11/07 04:07:27;;;;;;;18.27;4.22;;;11.30;99.90;;;;;;5033623;28;20134;-68
2022/11/07 04:09:52;;;;;;;14.00;5.18;;;11.40;99.90;;;;;;5046596;28;20041;-68
2022/11/07 04:17:46;;;;;;;15.02;5.07;;;11.20;99.90;;;;;;5033484;28;20132;-68
2022/11/07 04:20:11;;;;;;;19.75;4.72;;;11.20;99.90;;;;;;5034819;28;20559;-67
2022/11/07 04:22:37;;;;;;;7.88;4.10;;;11.20;99.90;;;;;;5047145;28;20033;-67
2022/11/07 04:25:03;;;;;;;13.98;4.50;;;;;;;;;;5034736;28;20087;-68
2022/11/07 04:27:43;;;;;;;8.57;5.13;;;11.20;99.90;;;;;;5034705;28;20376;-67
2022/11/07 04:30:22;;;;;;;14.98;5.07;;;11.50;99.90;;;;;;5033318;28;20034;-68
2022/11/07 04:32:56;;;;;;;9.80;5.03;;;11.20;99.90;;;;;;5034772;28;20042;-68
2022/11/07 04:35:24;;;;;;;15.82;4.70;;;11.20;99.90;;;;;;5034290;28;20527;-67
2022/11/07 04:37:49;;;;;;;13.32;5.25;;;11.10;99.90;;;;;;5033297;28;20511;-68
2022/11/07 04:40:16;;;;;;;16.63;5.60;;;11.20;99.90;;;;;;5038236;28;20104;-68
2022/11/07 04:42:43;;;;;;;17.23;6.15;;;11.20;99.90;;;;;;5044666;28;20048;-67
2022/11/07 04:45:09;;;;;;;17.42;5.88;;;11.20;99.90;;;;;;5034036;28;20034;-67
2022/11/07 04:47:35;;;;;;;17.27;6.25;;;;;;;;;;5034432;28;20029;-67
2022/11/07 04:50:02;;;;;;;14.50;5.47;;;11.20;99.90;;;;;;5034296;28;20140;-67
2022/11/07 04:52:28;;;;;;;10.00;5.10;;;;;;;;;;5034256;28;20099;-68
2022/11/07 04:54:53;;;;;;;12.30;5.38;;;11.30;99.90;;;;;;5034382;28;20084;-68
2022/11/07 04:57:20;;;;;;;14.00;6.07;;;;;;;;;;5034080;28;20029;-67
2022/11/07 04:59:45;;;;;;;11.18;4.30;;;11.00;99.90;;;;;;5034268;28;20112;-68
2022/11/07 05:02:11;;;;;;;14.18;5.93;;;;;;;;;;5034734;28;20551;-68
2022/11/07 05:04:38;;;;;;;12.82;4.50;;;11.20;99.90;;;;;;5044219;28;20135;-68
2022/11/07 05:07:04;;;;;;;16.00;4.65;;;;;;;;;;5032501;28;20060;-68
2022/11/07 05:09:30;;;;;;;13.10;4.40;;;;;;;;;;5044176;28;20037;-68
2022/11/07 05:11:56;;;;;;;13.63;4.85;;;;;;;;;;5032622;28;20112;-68
2022/11/07 05:14:22;;;;;;;15.35;5.00;;;11.10;99.90;;;;;;5033782;28;20048;-68
2022/11/07 05:16:49;;;;;;;19.13;5.40;;;11.00;99.90;;;;;;5033971;28;20037;-68
2022/11/07 05:19:18;;;;;;;20.67;5.50;;;11.20;99.90;;;;;;5033985;28;20116;-67
2022/11/07 05:21:44;;;;;;;9.23;4.35;;;11.20;99.90;;;;;;5046567;28;20173;-67
2022/11/07 05:24:11;;;;;;;15.57;5.78;;;11.10;99.90;;;;;;5033576;28;20037;-67
2022/11/07 05:26:36;;;;;;;13.52;5.07;;;11.00;99.90;;;;;;5033814;28;20091;-68
2022/11/07 05:29:03;;;;;;;10.38;4.95;;;11.30;99.90;;;;;;5033444;28;20033;-68
2022/11/07 05:31:28;;;;;;;11.98;4.97;;;11.20;99.90;;;;;;5033404;28;20084;-68
2022/11/07 05:33:54;;;;;;;9.95;4.68;;;;;;;;;;5033567;28;20069;-69
2022/11/07 05:36:22;;;;;;;8.23;4.57;;;11.10;99.90;;;;;;5032202;28;20575;-68
2022/11/07 05:38:50;;;;;;;15.05;5.10;;;11.20;99.90;;;;;;5021139;28;20053;-68
2022/11/07 05:41:17;;;;;;;11.27;4.93;;;11.30;99.90;;;;;;5053741;28;20044;-67
2022/11/07 05:43:43;;;;;;;10.60;4.30;;;11.00;99.90;;;;;;5034917;28;20448;-68
2022/11/07 05:46:09;;;;;;;14.10;5.05;;;11.00;99.90;;;;;;5033202;28;20120;-68
2022/11/07 05:48:35;;;;;;;12.50;4.88;;;;;;;;;;5033346;28;20033;-68
2022/11/07 05:51:01;;;;;;;12.20;5.70;;;11.00;99.90;;;;;;5033509;28;20045;-67
2022/11/07 05:53:28;;;;;;;12.32;4.22;;;;;;;;;;5047319;28;20045;-68
2022/11/07 05:55:54;;;;;;;7.97;3.83;;;;;;;;;;5033048;28;20045;-67
2022/11/07 05:58:20;;;;;;;13.63;4.72;;;11.10;99.90;;;;;;5033211;28;20096;-67
2022/11/07 06:00:47;;;;;;;12.30;4.70;;;11.10;99.90;;;;;;5032884;28;20561;-68
2022/11/07 06:03:13;;;;;;;13.10;5.35;;;11.00;99.90;;;;;;5031522;28;20500;-68
2022/11/07 06:05:41;;;;;;;11.27;4.60;;;11.20;99.90;;;;;;5031415;28;20057;-68
2022/11/07 06:08:10;;;;;;;16.17;5.13;;;11.30;99.90;;;;;;5037404;28;20094;-67
2022/11/07 06:10:37;;;;;;;12.25;4.47;;;11.30;99.90;;;;;;5036043;28;20037;-69
2022/11/07 06:13:06;;;;;;;10.82;4.78;;;11.30;99.90;;;;;;5032377;28;20048;-68
2022/11/07 06:15:34;;;;;;;12.45;4.03;;;11.30;99.90;;;;;;5032865;28;20041;-68
2022/11/07 06:18:05;;;;;;;12.38;4.32;;;11.20;99.90;;;;;;5045755;28;20128;-67
2022/11/07 06:20:32;;;;;;;11.57;4.13;;;11.20;99.90;;;;;;5031609;28;20033;-68
2022/11/07 06:22:58;;;;;;;14.13;4.60;;;11.20;99.90;;;;;;5033550;28;20087;-68
2022/11/07 06:25:25;;;;;;;11.18;4.82;;;11.20;99.90;;;;;;5031264;28;20073;-69
2022/11/07 06:27:50;;;;;;;11.55;4.35;;;11.20;99.90;;;;;;5031538;28;20045;-68
2022/11/07 06:30:16;;;;;;;17.38;5.97;;;11.10;99.90;;;;;;5032722;28;20075;-68
2022/11/07 06:32:45;;;;;;;11.68;6.00;;;;;;;;;;5031539;28;20120;-67
2022/11/07 06:35:11;;;;;;;18.33;7.10;;;11.10;99.90;;;;;;5050344;28;20044;-67
2022/11/07 06:37:37;;;;;;;18.05;7.20;;;10.90;99.90;;;;;;5041745;28;20077;-67
2022/11/07 06:40:03;;;;;;;18.40;6.90;;;11.10;99.90;;;;;;5032646;28;20052;-67
2022/11/07 06:42:29;;;;;;;15.52;7.13;;;11.20;99.90;;;;;;5032620;28;20545;-67
2022/11/07 06:44:55;;;;;;;20.23;7.00;;;;;;;;;;5032364;28;20125;-68
2022/11/07 06:47:21;;;;;;;12.95;6.75;;;;;;;;;;5032502;28;20041;-67
2022/11/07 06:49:46;;;;;;;16.38;6.68;;;11.10;99.90;;;;;;5032792;28;20120;-67
2022/11/07 06:52:12;;;;;;;18.02;7.35;;;11.10;99.90;;;;;;5031266;28;20610;-68
2022/11/07 06:54:37;;;;;;;22.58;7.68;;;11.10;99.90;;;;;;5032334;28;20447;-67
2022/11/07 06:57:03;;;;;;;21.98;8.15;;;;;;;;;;5032700;28;20136;-67
2022/11/07 06:59:29;;;;;;;18.30;7.28;;;;;;;;;;5031080;28;20076;-68
2022/11/07 07:01:55;;;;;;;16.88;7.15;;;11.20;99.90;;;;;;5032535;28;20128;-68
2022/11/07 07:04:21;;;;;;;14.70;7.13;;;;;;;;;;5030887;28;20107;-67
2022/11/07 07:06:47;;;;;;;21.40;7.88;;;;;;;;;;5031201;28;20499;-67
2022/11/07 07:09:12;;;;;;;22.63;7.82;;;11.10;99.90;;;;;;5034097;28;20045;-67
2022/11/07 07:11:38;;;;;;;27.15;7.93;;;11.20;99.90;;;;;;5031174;28;20466;-67
2022/11/07 07:14:04;;;;;;;19.30;7.25;;;11.20;99.90;;;;;;5030932;28;20095;-68
2022/11/07 07:16:30;;;;;;;22.60;7.32;;;;;;;;;;5032263;28;20045;-67
2022/11/07 07:18:56;;;;;;;15.70;8.18;;;;;;;;;;5032432;28;20037;-68
2022/11/07 07:21:22;;;;;;;15.65;6.40;;;11.20;99.90;;;;;;5032395;28;20464;-67
2022/11/07 07:23:48;;;;;;;19.38;7.40;;;11.20;99.90;;;;;;5031478;28;20124;-68
2022/11/07 07:26:15;;;;;;;25.27;8.10;;;11.40;99.90;;;;;;5049679;28;20376;-68
2022/11/07 07:28:42;;;;;;;18.65;7.80;;;11.20;99.90;;;;;;5035936;28;20095;-68
2022/11/07 07:31:13;;;;;;;18.70;8.38;;;11.30;99.90;;;;;;5048437;28;20037;-67
2022/11/07 07:33:40;;;;;;;21.30;7.35;;;11.20;99.90;;;;;;5035060;28;20048;-67
2022/11/07 07:36:06;;;;;;;18.27;7.68;;;11.10;99.90;;;;;;5017886;28;20041;-67
2022/11/07 07:38:32;;;;;;;17.92;8.13;;;11.20;99.90;;;;;;5034136;28;20037;-68
2022/11/07 07:40:58;;;;;;;16.13;7.75;;;;;;;;;;5034340;28;20511;-67
2022/11/07 07:43:25;;;;;;;19.52;8.55;;;11.40;99.90;;;;;;5034472;28;20569;-67
2022/11/07 07:45:51;;;;;;;18.38;8.07;;;11.40;99.90;;;;;;5035410;28;20037;-68
2022/11/07 07:48:16;;;;;;;19.52;8.07;;;11.30;99.90;;;;;;5047887;28;20049;-67
2022/11/07 07:50:42;;;;;;;16.48;7.32;;;11.50;99.90;;;;;;5035504;28;20112;-68
2022/11/07 07:53:08;;;;;;;21.45;7.97;;;11.30;99.90;;;;;;5035281;28;20045;-68
2022/11/07 07:55:34;;;;;;;20.15;8.48;;;11.40;99.90;;;;;;5035038;28;20116;-67
2022/11/07 07:57:59;;;;;;;17.77;7.35;;;11.50;99.90;;;;;;5035149;28;20049;-67
2022/11/07 08:00:25;;;;;;;20.55;7.28;;;11.30;99.90;;;;;;5033702;28;20041;-67
2022/11/07 08:02:50;;;;;;;19.13;8.18;;;11.60;99.90;;;;;;5034633;28;20065;-68
2022/11/07 08:05:16;;;;;;;21.85;7.18;;;11.70;99.90;;;;;;5034930;28;20495;-68
2022/11/07 08:07:46;;;;;;;20.23;8.15;;;11.80;99.90;;;;;;5035242;28;20484;-68
2022/11/07 08:10:12;;;;;;;12.73;6.50;;;;;;;;;;5038551;28;20552;-67
2022/11/07 08:12:43;;;;;;;24.73;7.18;;;11.70;99.90;;;;;;5034718;28;20158;-67
2022/11/07 08:15:09;;;;;;;16.88;6.78;;;11.80;99.90;;;;;;5033566;28;20124;-67
2022/11/07 08:17:34;;;;;;;17.50;6.90;;;11.80;99.90;;;;;;5042410;28;20041;-67
2022/11/07 08:20:00;;;;;;;17.95;6.68;;;11.70;99.90;;;;;;5041777;28;20033;-67
2022/11/07 08:22:25;;;;;;;25.42;7.22;;;11.70;99.90;;;;;;5041096;28;20500;-67
2022/11/07 08:24:51;;;;;;;17.98;7.18;;;;;;;;;;5035392;28;20057;-67
2022/11/07 08:27:17;;;;;;;19.50;6.00;;;11.80;99.90;;;;;;5034960;28;20052;-67
2022/11/07 08:29:42;;;;;;;17.25;6.13;;;11.80;99.90;;;;;;5033227;28;20539;-67
2022/11/07 08:32:08;;;;;;;20.45;7.20;;;11.90;99.90;;;;;;5042734;28;20033;-67
2022/11/07 08:34:33;;;;;;;21.67;6.13;;;11.90;99.90;;;;;;5034192;28;20037;-67
2022/11/07 08:36:59;;;;;;;18.60;5.85;;;11.90;99.90;;;;;;5034391;28;20037;-67
2022/11/07 08:39:24;;;;;;;16.30;5.93;;;12.00;99.90;;;;;;5033502;28;20080;-67
2022/11/07 08:41:50;;;;;;;14.73;5.68;;;;;;;;;;5034448;28;20068;-68
2022/11/07 08:44:16;;;;;;;20.40;5.68;;;;;;;;;;5033254;28;20052;-69
2022/11/07 08:46:42;;;;;;;23.85;7.57;;;12.10;99.90;;;;;;5036825;28;20033;-69
2022/11/07 08:49:08;;;;;;;17.90;5.88;;;;;;;;;;5034189;28;20044;-69
2022/11/07 08:51:34;;;;;;;15.57;5.13;;;;;;;;;;5032881;28;20037;-67
2022/11/07 08:53:59;;;;;;;16.05;6.10;;;12.10;99.90;;;;;;5040514;28;20404;-67
2022/11/07 08:56:25;;;;;;;14.48;5.85;;;12.00;99.90;;;;;;5033987;28;20064;-67
2022/11/07 08:58:51;;;;;;;16.63;6.10;;;;;;;;;;5032444;28;20521;-68
2022/11/07 09:01:16;;;;;;;21.73;7.82;;;12.00;99.90;;;;;;5032923;28;20060;-69
2022/11/07 09:03:42;;;;;;;19.67;5.97;;;11.80;99.90;;;;;;5032075;28;20128;-68
2022/11/07 09:06:08;;;;;;;18.13;6.35;;;12.00;99.90;;;;;;5033053;28;20038;-68
2022/11/07 09:08:33;;;;;;;17.58;5.90;;;;;;;;;;5033031;28;20032;-70
2022/11/07 09:11:04;;;;;;;15.38;6.43;;;11.90;99.90;;;;;;5036916;28;20081;-68
2022/11/07 09:13:30;;;;;;;11.35;5.65;;;12.00;99.90;;;;;;5039794;28;20498;-68
2022/11/07 09:16:00;;;;;;;11.52;5.03;;;12.00;99.90;;;;;;5033461;28;20048;-69
2022/11/07 09:18:26;;;;;;;16.42;6.00;;;12.20;99.90;;;;;;5015206;28;20041;-69
2022/11/07 09:20:52;;;;;;;16.42;5.72;;;12.00;99.90;;;;;;5031984;28;20041;-68
2022/11/07 09:23:18;;;;;;;14.48;5.50;;;11.90;99.90;;;;;;5047047;28;20042;-69
2022/11/07 09:25:45;;;;;;;18.80;5.53;;;;;;;;;;5031595;28;20057;-70
2022/11/07 09:28:10;;;;;;;16.17;5.85;;;12.00;99.90;;;;;;5029112;28;20094;-70
2022/11/07 09:30:36;;;;;;;15.32;5.78;;;12.00;99.90;;;;;;5031768;28;20033;-70
2022/11/07 09:33:02;;;;;;;19.60;5.93;;;;;;;;;;5031526;28;20120;-70
2022/11/07 09:35:27;;;;;;;14.15;6.53;;;11.90;99.90;;;;;;5051402;28;20423;-69
2022/11/07 09:37:53;;;;;;;22.33;5.32;;;;;;;;;;5052788;28;20080;-69
2022/11/07 09:40:42;;;;;;;17.27;5.05;;;12.30;99.90;;;;;;5033589;28;20044;-69
2022/11/07 09:43:08;;;;;;;17.80;5.72;;;;;;;;;;5031942;28;20057;-69
2022/11/07 09:45:42;;;;;;;21.27;5.70;;;12.20;99.90;;;;;;5031304;28;20045;-70
2022/11/07 09:48:19;;;;;;;19.85;5.25;;;12.20;99.90;;;;;;5032530;28;20506;-70
2022/11/07 09:50:48;;;;;;;11.55;4.50;;;12.30;99.90;;;;;;5032885;28;20132;-70
2022/11/07 09:53:28;;;;;;;14.70;5.20;;;12.30;99.90;;;;;;5032690;28;20029;-70
2022/11/07 09:55:56;;;;;;;17.60;4.90;;;;;;;;;;5038531;28;20057;-63
2022/11/07 09:58:40;;;;;;;13.73;4.72;;;12.30;99.90;;;;;;5032398;28;20072;-65
2022/11/07 10:01:12;;;;;;;18.23;5.10;;;12.30;99.90;;;;;;5032892;28;20041;-66
2022/11/07 10:03:38;;;;;;;13.25;4.97;;;;;;;;;;5031209;28;20053;-67
2022/11/07 10:06:19;;;;;;;15.18;4.88;;;12.50;99.90;;;;;;5031315;28;20074;-66
2022/11/07 10:08:57;;;;;;;13.65;5.32;;;12.40;99.90;;;;;;5033385;28;20037;-66
2022/11/07 10:11:57;;;;;;;16.25;5.05;;;12.60;99.90;;;;;;5033540;28;20045;-66
2022/11/07 10:14:46;;;;;;;15.98;4.72;;;12.50;99.90;;;;;;5033772;28;20395;-66
2022/11/07 10:17:44;;;;;;;13.90;4.53;;;12.50;99.90;;;;;;5031609;28;20444;-66
2022/11/07 10:20:31;;;;;;;11.45;4.18;;;12.70;99.90;;;;;;5030596;28;20060;-66
2022/11/07 10:23:28;;;;;;;12.82;4.70;;;12.60;99.90;;;;;;5030122;28;20044;-66
2022/11/07 10:26:14;;;;;;;18.20;5.13;;;12.40;99.90;;;;;;5034522;28;20037;-66
2022/11/07 10:28:43;;;;;;;10.30;4.35;;;12.80;99.90;;;;;;5045392;28;20037;-66
2022/11/07 10:31:13;;;;;;;17.73;4.68;;;12.90;99.90;;;;;;5032422;28;20076;-66
2022/11/07 10:33:55;;;;;;;16.35;5.28;;;12.80;99.90;;;;;;5031029;28;20037;-66
2022/11/07 10:36:31;;;;;;;16.50;5.05;;;13.10;99.90;;;;;;5034992;28;20049;-66
2022/11/07 10:38:57;;;;;;;9.60;4.03;;;12.90;99.90;;;;;;5031759;28;20056;-66
2022/11/07 10:41:25;;;;;;;16.02;4.47;;;12.90;99.90;;;;;;5031076;28;20042;-66
2022/11/07 10:44:12;;;;;;;13.93;4.60;;;12.90;99.90;;;;;;5031355;28;20404;-66
2022/11/07 10:46:40;;;;;;;15.13;4.53;;;13.00;99.90;;;;;;5032262;28;20052;-67
2022/11/07 10:49:25;;;;;;;14.55;4.63;;;13.00;99.90;;;;;;5031510;28;20029;-66
2022/11/07 10:51:51;;;;;;;11.85;4.75;;;13.20;99.90;;;;;;5032441;28;20075;-66
2022/11/07 10:54:39;;;;;;;12.80;4.45;;;12.90;99.90;;;;;;5032472;28;20038;-66
2022/11/07 10:57:09;;;;;;;15.30;4.25;;;13.00;99.90;;;;;;5034552;28;20495;-66
2022/11/07 10:59:56;;;;;;;12.88;3.53;;;13.10;99.90;;;;;;5034935;28;20109;-66
2022/11/07 11:02:28;;;;;;;8.80;4.28;;;13.10;99.90;;;;;;5034357;28;20048;-66
2022/11/07 11:04:57;;;;;;;10.93;4.30;;;13.20;99.90;;;;;;5035951;28;20057;-66
2022/11/07 11:07:36;;;;;;;14.80;4.00;;;13.10;99.90;;;;;;5034641;28;20042;-66
2022/11/07 11:10:15;;;;;;;12.05;4.13;;;13.20;99.90;;;;;;5041850;28;20416;-66
2022/11/07 11:12:45;;;;;;;13.80;3.92;;;13.10;99.90;;;;;;5035164;28;20499;-66
2022/11/07 11:15:13;;;;;;;10.48;4.22;;;13.10;99.90;;;;;;5048942;28;20149;-66
2022/11/07 11:17:39;;;;;;;8.50;3.78;;;13.30;99.90;;;;;;5035800;28;20503;-66
2022/11/07 11:20:22;;;;;;;10.75;3.83;;;13.20;99.90;;;;;;5055227;28;20473;-66
2022/11/07 11:22:47;;;;;;;10.98;3.70;;;13.30;99.90;;;;;;5040490;28;20049;-66
2022/11/07 11:25:18;;;;;;;12.52;3.70;;;13.50;99.90;;;;;;5034238;28;20045;-66
2022/11/07 11:27:53;;;;;;;9.68;3.92;;;13.50;99.90;;;;;;5034588;28;20041;-66
2022/11/07 11:30:19;;;;;;;10.90;3.73;;;13.50;99.90;;;;;;5034283;28;20534;-66
2022/11/07 11:32:48;;;;;;;15.60;3.60;;;13.80;99.90;;;;;;5034280;28;20048;-66
2022/11/07 11:35:37;;;;;;;10.13;3.70;;;13.50;99.90;;;;;;5035751;28;20037;-66
2022/11/07 11:38:19;;;;;;;21.15;3.80;;;13.60;99.90;;;;;;5051163;28;20403;-66
2022/11/07 11:40:59;;;;;;;11.63;3.30;;;13.50;99.90;;;;;;5034247;28;20099;-66
2022/11/07 11:43:32;;;;;;;10.57;3.80;;;13.60;99.90;;;;;;5034156;28;20041;-66
2022/11/07 11:45:58;;;;;;;11.90;3.85;;;;;;;;;;5034119;28;20052;-66
2022/11/07 11:48:26;;;;;;;11.85;3.58;;;13.50;99.90;;;;;;5033933;28;20045;-66
2022/11/07 11:50:58;;;;;;;11.77;3.88;;;13.60;99.90;;;;;;5033571;28;20049;-68
2022/11/07 11:53:25;;;;;;;16.60;3.85;;;;;;;;;;5033980;28;20041;-67
2022/11/07 11:56:10;;;;;;;12.40;4.32;;;13.50;99.90;;;;;;5033526;28;20049;-68
2022/11/07 11:58:48;;;;;;;14.18;4.72;;;13.60;99.90;;;;;;5036190;28;20091;-66
2022/11/07 12:01:28;;;;;;;8.90;3.25;;;13.50;99.90;;;;;;5033533;28;20068;-66
2022/11/07 12:04:22;;;;;;;15.60;4.30;;;13.60;99.90;;;;;;5033503;28;20100;-66
2022/11/07 12:06:50;;;;;;;10.27;3.78;;;13.70;99.90;;;;;;5034047;28;20049;-66
2022/11/07 12:09:42;;;;;;;16.30;3.63;;;13.90;99.90;;;;;;5041132;28;20045;-66
2022/11/07 12:12:24;;;;;;;8.98;2.78;;;13.80;99.90;;;;;;5033647;28;20107;-66
2022/11/07 12:15:06;;;;;;;9.20;3.42;;;13.90;99.90;;;;;;5049401;28;20029;-66
2022/11/07 12:17:46;;;;;;;14.10;4.07;;;14.20;99.90;;;;;;5033659;28;20050;-66
2022/11/07 12:20:29;;;;;;;9.60;2.75;;;14.30;99.90;;;;;;5039681;28;20045;-66
2022/11/07 12:23:10;;;;;;;8.75;2.85;;;14.30;99.90;;;;;;5048598;28;20045;-66
2022/11/07 12:25:59;;;;;;;12.95;2.67;;;14.30;99.90;;;;;;5032449;28;20029;-66
2022/11/07 12:28:42;;;;;;;9.15;2.80;;;14.20;99.90;;;;;;5033635;28;20050;-66
2022/11/07 12:31:28;;;;;;;10.82;3.25;;;14.10;99.90;;;;;;5045953;28;20052;-66
2022/11/07 12:34:28;;;;;;;11.73;3.40;;;14.20;99.90;;;;;;5034653;28;20042;-66
2022/11/07 12:37:32;;;;;;;10.07;3.25;;;14.30;99.90;;;;;;5047312;28;20120;-66
2022/11/07 12:40:21;;;;;;;9.50;3.00;;;14.10;99.90;;;;;;5034771;28;20084;-66
2022/11/07 12:42:50;;;;;;;12.77;2.92;;;14.10;99.90;;;;;;5033114;28;20075;-66
2022/11/07 12:45:44;;;;;;;8.43;3.10;;;14.20;99.90;;;;;;5032236;28;20052;-66
2022/11/07 12:48:37;;;;;;;12.70;3.55;;;14.00;99.90;;;;;;5012391;28;20055;-67
2022/11/07 12:51:37;;;;;;;13.00;3.70;;;14.00;99.90;;;;;;5032567;28;20503;-66
2022/11/07 12:54:25;;;;;;;15.18;3.63;;;14.10;99.90;;;;;;5042895;28;20513;-67
2022/11/07 12:56:52;;;;;;;11.40;3.67;;;14.00;99.90;;;;;;5049802;28;20111;-66
2022/11/07 12:59:30;;;;;;;12.10;3.92;;;14.00;99.90;;;;;;5040245;28;20041;-66
2022/11/07 13:02:17;;;;;;;14.77;4.15;;;14.00;99.90;;;;;;5045134;28;20372;-66
2022/11/07 13:05:03;;;;;;;15.70;4.15;;;14.10;99.90;;;;;;5039485;28;20053;-66
2022/11/07 13:07:49;;;;;;;12.00;3.40;;;14.00;99.90;;;;;;5035371;28;20465;-67
2022/11/07 13:10:39;;;;;;;12.90;3.83;;;14.10;99.90;;;;;;5032871;28;20033;-66
2022/11/07 13:13:14;;;;;;;12.88;3.25;;;14.10;99.90;;;;;;5035396;28;20083;-66
2022/11/07 13:15:40;;;;;;;17.73;4.20;;;;;;;;;;5039377;28;20056;-66
2022/11/07 13:18:38;;;;;;;13.38;3.17;;;14.10;99.90;;;;;;5046047;28;20462;-66
2022/11/07 13:21:05;;;;;;;23.00;4.30;;;14.00;99.90;;;;;;5012625;28;20050;-66